createdAt,value
2023-01-02T00:01:26.289Z,1.64
2023-01-02T00:03:57.995Z,1.60
2023-01-02T00:06:25.632Z,1.71
2023-01-02T00:08:52.908Z,1.60
2023-01-02T00:11:20.542Z,1.61
2023-01-02T00:13:47.919Z,1.74
2023-01-02T00:16:15.235Z,1.75
2023-01-02T00:18:42.749Z,1.70
2023-01-02T00:21:10.561Z,1.74
2023-01-02T00:23:38.101Z,1.63
2023-01-02T00:26:06.871Z,1.82
2023-01-02T00:28:34.354Z,1.83
2023-01-02T00:31:09.652Z,1.59
2023-01-02T00:33:37.879Z,1.67
2023-01-02T00:36:10.444Z,1.42
2023-01-02T00:38:38.913Z,1.41
2023-01-02T00:41:06.887Z,1.41
2023-01-02T00:43:34.410Z,1.39
2023-01-02T00:46:07.648Z,1.38
2023-01-02T00:48:38.439Z,1.42
2023-01-02T00:51:06.419Z,1.58
2023-01-02T00:53:35.378Z,1.54
2023-01-02T00:56:02.918Z,1.37
2023-01-02T00:58:30.503Z,1.32
2023-01-02T01:00:58.009Z,1.40
2023-01-02T01:03:25.289Z,1.45
2023-01-02T01:05:52.839Z,1.41
2023-01-02T01:08:20.103Z,1.52
2023-01-02T01:10:47.396Z,1.65
2023-01-02T01:13:15.012Z,1.51
2023-01-02T01:15:42.219Z,1.52
2023-01-02T01:18:09.559Z,1.45
2023-01-02T01:20:40.534Z,1.40
2023-01-02T01:23:07.799Z,1.59
2023-01-02T01:25:37.350Z,1.52
2023-01-02T01:28:04.949Z,1.59
2023-01-02T01:30:32.259Z,1.56
2023-01-02T01:33:00.775Z,1.50
2023-01-02T01:35:28.403Z,1.56
2023-01-02T01:37:55.662Z,1.61
2023-01-02T01:40:23.069Z,1.56
2023-01-02T01:42:52.118Z,1.59
2023-01-02T01:45:21.226Z,1.65
2023-01-02T01:47:59.033Z,1.58
2023-01-02T01:50:33.819Z,1.56
2023-01-02T01:53:22.268Z,1.51
2023-01-02T01:55:53.712Z,1.50
2023-01-02T01:58:27.677Z,1.59
2023-01-02T02:00:56.386Z,1.41
2023-01-02T02:03:28.830Z,1.31
2023-01-02T02:05:58.271Z,1.49
2023-01-02T02:08:29.347Z,1.58
2023-01-02T02:10:59.753Z,1.45
2023-01-02T02:13:27.104Z,1.48
2023-01-02T02:16:13.221Z,1.58
2023-01-02T02:19:03.053Z,1.63
2023-01-02T02:21:48.973Z,1.60
2023-01-02T02:24:28.840Z,1.66
2023-01-02T02:27:08.296Z,1.72
2023-01-02T02:30:14.416Z,1.58
2023-01-02T02:32:50.992Z,1.60
2023-01-02T02:35:34.127Z,1.65
2023-01-02T02:38:15.192Z,1.53
2023-01-02T02:40:42.745Z,1.44
2023-01-02T02:43:30.663Z,1.58
2023-01-02T02:46:29.571Z,1.60
2023-01-02T02:49:24.690Z,1.57
2023-01-02T02:52:00.525Z,1.57
2023-01-02T02:54:38.062Z,1.67
2023-01-02T02:57:08.204Z,1.54
2023-01-02T02:59:37.589Z,1.58
2023-01-02T03:02:05.495Z,1.55
2023-01-02T03:04:33.401Z,1.58
2023-01-02T03:07:10.997Z,1.67
2023-01-02T03:09:58.494Z,1.83
2023-01-02T03:12:37.920Z,1.82
2023-01-02T03:15:48.340Z,1.85
2023-01-02T03:18:36.301Z,1.68
2023-01-02T03:21:41.844Z,1.64
2023-01-02T03:24:12.067Z,1.84
2023-01-02T03:26:44.859Z,1.81
2023-01-02T03:29:30.973Z,1.82
2023-01-02T03:32:01.820Z,1.75
2023-01-02T03:34:32.834Z,1.70
2023-01-02T03:37:12.131Z,1.60
2023-01-02T03:39:47.985Z,1.68
2023-01-02T03:42:29.368Z,1.75
2023-01-02T03:45:00.217Z,1.67
2023-01-02T03:47:36.636Z,1.72
2023-01-02T03:50:28.946Z,1.71
2023-01-02T03:52:56.641Z,1.61
2023-01-02T03:55:25.283Z,1.66
2023-01-02T03:58:01.294Z,1.56
2023-01-02T04:00:54.212Z,1.52
2023-01-02T04:03:31.209Z,1.74
2023-01-02T04:06:07.567Z,1.71
2023-01-02T04:08:46.359Z,1.74
2023-01-02T04:11:18.160Z,1.73
2023-01-02T04:13:51.306Z,1.64
2023-01-02T04:16:24.335Z,1.57
2023-01-02T04:19:03.908Z,1.55
2023-01-02T04:21:34.084Z,1.51
2023-01-02T04:24:11.405Z,1.67
2023-01-02T04:26:57.956Z,1.36
2023-01-02T04:29:26.005Z,1.51
2023-01-02T04:32:22.976Z,1.67
2023-01-02T04:34:52.801Z,1.72
2023-01-02T04:37:39.062Z,1.79
2023-01-02T04:40:12.950Z,1.72
2023-01-02T04:42:40.912Z,1.63
2023-01-02T04:45:09.344Z,1.76
2023-01-02T04:47:37.298Z,1.80
2023-01-02T04:50:06.441Z,1.64
2023-01-02T04:52:37.324Z,1.67
2023-01-02T04:55:08.528Z,1.83
2023-01-02T04:57:37.559Z,1.76
2023-01-02T05:00:12.347Z,1.60
2023-01-02T05:02:40.970Z,1.75
2023-01-02T05:05:09.495Z,1.83
2023-01-02T05:07:37.929Z,1.83
2023-01-02T05:10:08.633Z,1.85
2023-01-02T05:12:37.383Z,1.67
2023-01-02T05:15:06.775Z,1.75
2023-01-02T05:17:36.028Z,1.72
2023-01-02T05:20:05.139Z,1.76
2023-01-02T05:22:51.495Z,1.70
2023-01-02T05:25:19.516Z,1.68
2023-01-02T05:27:47.038Z,1.61
2023-01-02T05:30:14.458Z,1.68
2023-01-02T05:32:43.477Z,1.67
2023-01-02T05:35:10.865Z,1.79
2023-01-02T05:37:38.655Z,1.78
2023-01-02T05:40:08.697Z,1.76
2023-01-02T05:42:36.843Z,1.91
2023-01-02T05:45:06.534Z,1.79
2023-01-02T05:47:34.757Z,1.70
2023-01-02T05:50:06.709Z,1.80
2023-01-02T05:52:37.588Z,1.54
2023-01-02T05:55:11.288Z,1.58
2023-01-02T05:57:39.073Z,1.55
2023-01-02T06:00:06.856Z,1.45
2023-01-02T06:02:43.105Z,1.38
2023-01-02T06:05:16.794Z,1.27
2023-01-02T06:07:44.053Z,0.84
2023-01-02T06:10:11.323Z,0.89
2023-01-02T06:12:39.126Z,1.03
2023-01-02T06:15:06.969Z,1.15
2023-01-02T06:17:35.617Z,0.68
2023-01-02T06:20:03.569Z,0.42
2023-01-02T06:22:30.983Z,0.58
2023-01-02T06:24:58.282Z,0.82
2023-01-02T06:27:27.099Z,0.49
2023-01-02T06:29:54.958Z,0.51
2023-01-02T06:32:22.461Z,0.82
2023-01-02T06:34:50.504Z,1.06
2023-01-02T06:37:18.148Z,1.35
2023-01-02T06:39:45.656Z,1.35
2023-01-02T06:42:14.080Z,1.48
2023-01-02T06:44:41.494Z,1.43
2023-01-02T06:47:08.880Z,1.59
2023-01-02T06:49:36.828Z,1.66
2023-01-02T06:52:04.304Z,1.46
2023-01-02T06:54:32.832Z,1.56
2023-01-02T06:57:00.561Z,1.67
2023-01-02T06:59:27.841Z,1.90
2023-01-02T07:01:55.269Z,1.95
2023-01-02T07:04:22.988Z,1.85
2023-01-02T07:06:50.298Z,1.88
2023-01-02T07:09:18.146Z,2.05
2023-01-02T07:11:46.243Z,2.16
2023-01-02T07:14:14.135Z,2.27
2023-01-02T07:16:41.466Z,2.33
2023-01-02T07:19:09.171Z,2.40
2023-01-02T07:21:36.611Z,2.47
2023-01-02T07:24:04.080Z,2.32
2023-01-02T07:26:31.762Z,2.37
2023-01-02T07:28:59.095Z,2.49
2023-01-02T07:31:29.395Z,2.55
2023-01-02T07:33:59.218Z,2.40
2023-01-02T07:36:27.503Z,2.60
2023-01-02T07:38:57.431Z,2.68
2023-01-02T07:41:26.959Z,2.71
2023-01-02T07:43:56.500Z,2.74
2023-01-02T07:46:24.353Z,2.83
2023-01-02T07:48:52.607Z,2.76
2023-01-02T07:51:26.637Z,2.86
2023-01-02T07:53:57.380Z,3.09
2023-01-02T07:56:26.320Z,3.26
2023-01-02T07:58:53.990Z,3.32
2023-01-02T08:01:22.063Z,3.01
2023-01-02T08:03:49.871Z,3.28
2023-01-02T08:06:18.368Z,3.34
2023-01-02T08:08:46.278Z,3.31
2023-01-02T08:11:16.681Z,3.44
2023-01-02T08:13:44.737Z,3.48
2023-01-02T08:16:14.915Z,2.89
2023-01-02T08:18:43.017Z,2.96
2023-01-02T08:21:11.322Z,3.18
2023-01-02T08:23:39.393Z,3.46
2023-01-02T08:26:09.121Z,3.37
2023-01-02T08:28:38.361Z,3.59
2023-01-02T08:31:17.037Z,3.53
2023-01-02T08:33:45.254Z,3.57
2023-01-02T08:36:14.834Z,3.66
2023-01-02T08:38:42.644Z,3.59
2023-01-02T08:41:11.408Z,3.64
2023-01-02T08:43:38.862Z,3.68
2023-01-02T08:46:09.504Z,3.49
2023-01-02T08:48:37.429Z,3.50
2023-01-02T08:51:05.579Z,3.81
2023-01-02T08:53:32.922Z,3.78
2023-01-02T08:56:20.796Z,3.78
2023-01-02T08:58:53.064Z,3.56
2023-01-02T09:01:21.304Z,3.62
2023-01-02T09:03:48.795Z,3.88
2023-01-02T09:06:21.535Z,4.24
2023-01-02T09:08:53.033Z,4.45
2023-01-02T09:11:24.842Z,4.60
2023-01-02T09:13:52.854Z,5.02
2023-01-02T09:16:21.117Z,5.24
2023-01-02T09:18:49.132Z,5.52
2023-01-02T09:21:17.219Z,5.85
2023-01-02T09:23:44.642Z,6.18
2023-01-02T09:26:13.688Z,6.03
2023-01-02T09:28:41.654Z,6.25
2023-01-02T09:31:13.151Z,6.67
2023-01-02T09:33:43.027Z,7.08
2023-01-02T09:36:13.342Z,7.20
2023-01-02T09:38:41.035Z,7.44
2023-01-02T09:41:29.576Z,7.70
2023-01-02T09:44:14.883Z,7.77
2023-01-02T09:46:57.623Z,8.14
2023-01-02T09:49:29.164Z,8.15
2023-01-02T09:51:57.641Z,8.22
2023-01-02T09:54:28.523Z,8.36
2023-01-02T09:57:14.906Z,8.66
2023-01-02T10:00:04.061Z,9.19
2023-01-02T10:03:14.971Z,9.66
2023-01-02T10:06:05.914Z,10.12
2023-01-02T10:08:59.525Z,10.16
2023-01-02T10:11:56.588Z,10.71
2023-01-02T10:15:00.234Z,10.83
2023-01-02T10:17:35.286Z,11.40
2023-01-02T10:20:22.096Z,10.97
2023-01-02T10:23:03.031Z,11.12
2023-01-02T10:25:39.862Z,11.61
2023-01-02T10:28:16.305Z,11.86
2023-01-02T10:30:50.707Z,12.69
2023-01-02T10:33:27.070Z,12.99
2023-01-02T10:36:00.449Z,12.76
2023-01-02T10:38:36.070Z,12.77
2023-01-02T10:41:03.866Z,12.59
2023-01-02T10:43:35.051Z,12.70
2023-01-02T10:46:04.477Z,12.83
2023-01-02T10:48:37.578Z,13.96
2023-01-02T10:51:11.825Z,13.99
2023-01-02T10:53:39.637Z,13.84
2023-01-02T10:56:18.814Z,14.01
2023-01-02T10:58:51.817Z,14.23
2023-01-02T11:01:22.006Z,13.69
2023-01-02T11:04:10.501Z,14.16
2023-01-02T11:06:51.275Z,14.50
2023-01-02T11:09:30.358Z,15.06
2023-01-02T11:12:13.509Z,14.80
2023-01-02T11:14:41.343Z,15.21
2023-01-02T11:17:22.011Z,15.66
2023-01-02T11:19:55.794Z,16.17
2023-01-02T11:22:34.381Z,16.42
2023-01-02T11:25:03.224Z,15.91
2023-01-02T11:27:36.892Z,15.80
2023-01-02T11:30:07.614Z,16.02
2023-01-02T11:32:41.667Z,16.67
2023-01-02T11:35:32.342Z,17.26
2023-01-02T11:38:01.755Z,17.17
2023-01-02T11:40:33.234Z,17.12
2023-01-02T11:43:26.189Z,17.47
2023-01-02T11:45:55.034Z,17.75
2023-01-02T11:48:23.876Z,17.82
2023-01-02T11:50:53.045Z,17.88
2023-01-02T11:53:27.343Z,18.09
2023-01-02T11:55:58.798Z,18.23
2023-01-02T11:58:48.413Z,18.11
2023-01-02T12:01:29.620Z,18.21
2023-01-02T12:03:57.899Z,17.89
2023-01-02T12:06:43.561Z,17.89
2023-01-02T12:09:14.017Z,18.39
2023-01-02T12:11:57.002Z,19.16
2023-01-02T12:14:54.529Z,19.68
2023-01-02T12:17:43.961Z,19.72
2023-01-02T12:20:27.068Z,19.77
2023-01-02T12:23:13.032Z,20.12
2023-01-02T12:26:15.092Z,20.20
2023-01-02T12:29:47.117Z,20.48
2023-01-02T12:32:32.206Z,20.78
2023-01-02T12:35:25.713Z,20.59
2023-01-02T12:37:56.685Z,20.68
2023-01-02T12:41:12.435Z,21.06
2023-01-02T12:43:58.684Z,21.40
2023-01-02T12:46:49.157Z,22.06
2023-01-02T12:49:41.021Z,22.66
2023-01-02T12:52:15.041Z,23.14
2023-01-02T12:55:05.936Z,23.44
2023-01-02T12:57:43.333Z,24.04
2023-01-02T13:00:48.788Z,24.13
2023-01-02T13:03:42.083Z,24.43
2023-01-02T13:06:45.123Z,25.39
2023-01-02T13:09:23.904Z,25.45
2023-01-02T13:12:03.896Z,26.21
2023-01-02T13:14:59.488Z,26.45
2023-01-02T13:17:37.996Z,27.03
2023-01-02T13:20:05.199Z,27.59
2023-01-02T13:22:42.106Z,27.85
2023-01-02T13:25:18.877Z,28.37
2023-01-02T13:27:49.234Z,28.27
2023-01-02T13:30:35.163Z,28.78
2023-01-02T13:33:14.744Z,28.55
2023-01-02T13:35:42.164Z,27.70
2023-01-02T13:38:15.206Z,24.99
2023-01-02T13:40:42.901Z,22.62
2023-01-02T13:43:19.191Z,21.02
2023-01-02T13:45:51.596Z,19.88
2023-01-02T13:48:39.631Z,18.69
2023-01-02T13:51:13.380Z,17.78
2023-01-02T13:53:43.326Z,17.06
2023-01-02T13:56:16.988Z,16.24
2023-01-02T13:59:41.915Z,15.75
2023-01-02T14:02:20.401Z,15.53
2023-01-02T14:04:48.410Z,15.25
2023-01-02T14:07:24.874Z,15.12
2023-01-02T14:10:10.943Z,14.73
2023-01-02T14:12:53.541Z,14.67
2023-01-02T14:15:25.447Z,14.46
2023-01-02T14:18:02.419Z,13.93
2023-01-02T14:20:33.189Z,13.72
2023-01-02T14:23:10.498Z,13.36
2023-01-02T14:25:47.959Z,13.46
2023-01-02T14:28:29.252Z,13.36
2023-01-02T14:30:58.424Z,13.21
2023-01-02T14:33:35.298Z,13.07
2023-01-02T14:36:10.216Z,12.96
2023-01-02T14:38:54.207Z,12.81
2023-01-02T14:42:08.794Z,12.63
2023-01-02T14:44:46.852Z,12.62
2023-01-02T14:47:21.164Z,12.42
2023-01-02T14:49:55.143Z,12.25
2023-01-02T14:52:29.556Z,12.03
2023-01-02T14:55:21.464Z,12.05
2023-01-02T14:57:52.679Z,11.91
2023-01-02T15:00:38.702Z,11.76
2023-01-02T15:03:33.464Z,11.56
2023-01-02T15:06:27.873Z,11.42
2023-01-02T15:09:05.241Z,11.36
2023-01-02T15:11:52.840Z,11.20
2023-01-02T15:14:23.849Z,11.19
2023-01-02T15:16:56.684Z,10.85
2023-01-02T15:19:33.497Z,10.88
2023-01-02T15:22:13.351Z,10.63
2023-01-02T15:24:48.331Z,10.47
2023-01-02T15:27:30.468Z,10.28
2023-01-02T15:30:01.209Z,10.27
2023-01-02T15:32:32.509Z,10.04
2023-01-02T15:35:36.226Z,9.90
2023-01-02T15:38:06.901Z,9.74
2023-01-02T15:40:36.300Z,9.66
2023-01-02T15:43:32.663Z,9.66
2023-01-02T15:46:00.710Z,9.44
2023-01-02T15:48:29.246Z,9.40
2023-01-02T15:50:59.482Z,9.19
2023-01-02T15:53:34.854Z,9.19
2023-01-02T15:56:02.357Z,9.06
2023-01-02T15:58:32.433Z,8.98
2023-01-02T16:01:18.660Z,8.91
2023-01-02T16:04:02.470Z,8.99
2023-01-02T16:06:30.909Z,8.75
2023-01-02T16:09:01.022Z,8.59
2023-01-02T16:11:29.530Z,8.73
2023-01-02T16:14:22.462Z,8.69
2023-01-02T16:16:59.707Z,8.63
2023-01-02T16:19:35.230Z,8.45
2023-01-02T16:22:12.268Z,8.36
2023-01-02T16:24:50.435Z,8.38
2023-01-02T16:27:27.412Z,7.98
2023-01-02T16:29:55.019Z,8.03
2023-01-02T16:32:31.464Z,8.02
2023-01-02T16:35:01.169Z,7.90
2023-01-02T16:37:32.931Z,7.61
2023-01-02T16:40:58.775Z,7.84
2023-01-02T16:43:14.134Z,7.71
2023-01-02T16:45:41.909Z,7.41
2023-01-02T16:48:16.298Z,7.55
2023-01-02T16:50:46.328Z,7.31
2023-01-02T16:53:18.815Z,7.17
2023-01-02T16:55:47.174Z,7.18
2023-01-02T16:58:14.620Z,7.15
2023-01-02T17:00:43.810Z,7.36
2023-01-02T17:03:21.232Z,7.10
2023-01-02T17:06:12.433Z,7.02
2023-01-02T17:08:40.740Z,6.75
2023-01-02T17:11:09.345Z,6.82
2023-01-02T17:13:36.812Z,6.61
2023-01-02T17:16:06.975Z,6.69
2023-01-02T17:18:35.398Z,6.68
2023-01-02T17:21:03.635Z,6.57
2023-01-02T17:23:31.673Z,6.62
2023-01-02T17:25:59.610Z,6.74
2023-01-02T17:28:27.943Z,6.48
2023-01-02T17:30:55.816Z,6.36
2023-01-02T17:33:23.984Z,6.26
2023-01-02T17:35:51.886Z,6.16
2023-01-02T17:38:20.003Z,6.11
2023-01-02T17:40:49.097Z,6.25
2023-01-02T17:43:17.385Z,6.22
2023-01-02T17:45:46.028Z,5.96
2023-01-02T17:48:17.248Z,6.09
2023-01-02T17:50:51.647Z,5.85
2023-01-02T17:53:18.944Z,5.68
2023-01-02T17:56:20.547Z,5.62
2023-01-02T17:58:44.759Z,5.68
2023-01-02T18:01:21.390Z,5.47
2023-01-02T18:03:49.298Z,5.52
2023-01-02T18:06:17.989Z,5.45
2023-01-02T18:08:45.779Z,5.45
2023-01-02T18:11:16.267Z,5.56
2023-01-02T18:13:47.885Z,5.49
2023-01-02T18:16:22.411Z,5.40
2023-01-02T18:18:51.287Z,5.37
2023-01-02T18:21:22.213Z,5.36
2023-01-02T18:23:55.288Z,5.19
2023-01-02T18:26:24.764Z,5.12
2023-01-02T18:29:02.946Z,5.15
2023-01-02T18:31:41.612Z,5.10
2023-01-02T18:34:47.790Z,4.87
2023-01-02T18:37:23.939Z,4.90
2023-01-02T18:39:51.443Z,4.91
2023-01-02T18:42:29.002Z,4.80
2023-01-02T18:45:00.049Z,4.74
2023-01-02T18:47:31.750Z,4.63
2023-01-02T18:50:24.269Z,4.78
2023-01-02T18:52:52.337Z,4.75
2023-01-02T18:55:25.160Z,4.74
2023-01-02T18:58:01.848Z,4.55
2023-01-02T19:00:32.738Z,4.71
2023-01-02T19:03:03.461Z,4.57
2023-01-02T19:05:32.064Z,4.35
2023-01-02T19:08:12.920Z,4.56
2023-01-02T19:10:43.336Z,4.44
2023-01-02T19:13:31.396Z,4.47
2023-01-02T19:16:01.109Z,4.34
2023-01-02T19:18:41.655Z,4.47
2023-01-02T19:21:13.297Z,4.37
2023-01-02T19:23:48.544Z,4.27
2023-01-02T19:26:24.766Z,4.21
2023-01-02T19:29:11.541Z,4.03
2023-01-02T19:31:58.000Z,3.93
2023-01-02T19:34:48.291Z,3.86
2023-01-02T19:37:30.574Z,3.95
2023-01-02T19:40:00.200Z,3.81
2023-01-02T19:42:32.205Z,3.78
2023-01-02T19:45:06.864Z,3.69
2023-01-02T19:47:37.942Z,3.87
2023-01-02T19:50:10.071Z,3.66
2023-01-02T19:52:38.057Z,3.58
2023-01-02T19:55:07.463Z,3.61
2023-01-02T19:57:34.999Z,3.62
2023-01-02T20:00:05.712Z,3.49
2023-01-02T20:02:39.864Z,3.57
2023-01-02T20:05:08.329Z,3.61
2023-01-02T20:07:35.713Z,3.60
2023-01-02T20:10:03.273Z,3.57
2023-01-02T20:12:31.031Z,3.66
2023-01-02T20:14:59.980Z,3.65
2023-01-02T20:17:30.841Z,3.50
2023-01-02T20:19:58.922Z,3.60
2023-01-02T20:22:27.858Z,3.51
2023-01-02T20:24:56.155Z,3.60
2023-01-02T20:27:25.083Z,3.60
2023-01-02T20:29:54.097Z,3.47
2023-01-02T20:32:22.459Z,3.67
2023-01-02T20:34:51.176Z,3.30
2023-01-02T20:37:21.805Z,3.20
2023-01-02T20:39:51.021Z,3.12
2023-01-02T20:42:20.377Z,3.37
2023-01-02T20:44:49.512Z,3.28
2023-01-02T20:47:17.365Z,3.19
2023-01-02T20:49:45.119Z,3.16
2023-01-02T20:52:12.461Z,3.18
2023-01-02T20:54:40.798Z,3.18
2023-01-02T20:57:08.476Z,3.24
2023-01-02T20:59:35.831Z,3.14
2023-01-02T21:02:03.434Z,3.04
2023-01-02T21:04:36.532Z,3.00
2023-01-02T21:07:06.279Z,3.19
2023-01-02T21:09:34.085Z,3.10
2023-01-02T21:12:01.899Z,3.13
2023-01-02T21:14:35.448Z,2.99
2023-01-02T21:17:05.386Z,3.14
2023-01-02T21:19:32.794Z,2.89
2023-01-02T21:22:00.719Z,2.79
2023-01-02T21:24:28.629Z,2.89
2023-01-02T21:26:55.976Z,2.84
2023-01-02T21:29:23.354Z,2.71
2023-01-02T21:31:51.210Z,2.66
2023-01-02T21:34:18.594Z,2.56
2023-01-02T21:36:45.932Z,2.48
2023-01-02T21:39:13.554Z,2.61
2023-01-02T21:41:59.937Z,2.60
2023-01-02T21:44:27.628Z,2.50
2023-01-02T21:46:55.022Z,2.55
2023-01-02T21:49:22.456Z,2.51
2023-01-02T21:51:52.705Z,2.55
2023-01-02T21:54:20.323Z,2.49
2023-01-02T21:56:47.650Z,2.62
2023-01-02T21:59:15.322Z,2.52
2023-01-02T22:01:42.754Z,2.55
2023-01-02T22:04:11.480Z,2.53
2023-01-02T22:07:04.362Z,2.62
2023-01-02T22:09:28.347Z,2.35
2023-01-02T22:11:55.685Z,2.49
2023-01-02T22:14:32.457Z,2.48
2023-01-02T22:17:05.850Z,2.35
2023-01-02T22:19:33.861Z,2.44
2023-01-02T22:22:02.598Z,2.21
2023-01-02T22:24:30.499Z,2.08
2023-01-02T22:27:02.166Z,2.11
2023-01-02T22:30:00.576Z,1.93
2023-01-02T22:32:19.048Z,2.12
2023-01-02T22:34:46.967Z,2.23
2023-01-02T22:37:22.116Z,2.07
2023-01-02T22:39:50.690Z,2.16
2023-01-02T22:45:53.649Z,2.07
2023-01-02T22:48:26.738Z,2.14
2023-01-02T22:50:56.711Z,1.98
2023-01-02T22:53:32.203Z,1.96
2023-01-02T22:56:13.074Z,1.93
2023-01-02T22:58:40.726Z,2.02
2023-01-02T23:01:16.947Z,1.99
2023-01-02T23:03:46.599Z,2.02
2023-01-02T23:06:21.575Z,1.78
2023-01-02T23:08:49.778Z,1.76
2023-01-02T23:11:18.234Z,1.84
2023-01-02T23:13:48.993Z,1.92
2023-01-02T23:16:37.774Z,1.85
2023-01-02T23:19:18.948Z,1.83
2023-01-02T23:22:00.353Z,1.79
2023-01-02T23:24:31.251Z,1.79
2023-01-02T23:27:03.402Z,1.66
2023-01-02T23:29:31.490Z,1.57
2023-01-02T23:32:00.508Z,1.70
2023-01-02T23:34:30.085Z,1.77
2023-01-02T23:36:59.271Z,1.91
2023-01-02T23:39:30.010Z,1.74
2023-01-02T23:41:57.836Z,1.66
2023-01-02T23:44:26.189Z,1.62
2023-01-02T23:46:54.542Z,1.82
2023-01-02T23:49:23.643Z,1.74
2023-01-02T23:51:51.957Z,1.73
2023-01-02T23:54:21.870Z,1.82
2023-01-02T23:56:51.057Z,1.76
2023-01-02T23:59:21.500Z,1.79
